createdAt,value
2023-02-14T00:00:41.580Z,74.49
2023-02-14T00:02:02.002Z,74.62
2023-02-14T00:03:03.556Z,74.46
2023-02-14T00:04:05.344Z,74.91
2023-02-14T00:05:07.226Z,74.59
2023-02-14T00:06:11.863Z,74.53
2023-02-14T00:07:13.886Z,74.56
2023-02-14T00:08:15.665Z,74.55
2023-02-14T00:09:18.764Z,74.55
2023-02-14T00:10:20.287Z,74.52
2023-02-14T00:11:21.978Z,74.66
2023-02-14T00:12:23.746Z,74.80
2023-02-14T00:13:25.204Z,74.71
2023-02-14T00:14:45.250Z,74.83
2023-02-14T00:15:46.719Z,74.69
2023-02-14T00:16:48.955Z,74.76
2023-02-14T00:17:53.979Z,74.97
2023-02-14T00:19:04.827Z,74.70
2023-02-14T00:20:06.961Z,74.81
2023-02-14T00:21:08.498Z,75.18
2023-02-14T00:22:10.075Z,74.78
2023-02-14T00:23:11.754Z,74.98
2023-02-14T00:24:22.778Z,74.80
2023-02-14T00:25:24.311Z,75.28
2023-02-14T00:26:25.816Z,75.17
2023-02-14T00:27:27.353Z,75.06
2023-02-14T00:28:28.992Z,74.95
2023-02-14T00:29:32.142Z,75.19
2023-02-14T00:30:34.280Z,75.23
2023-02-14T00:31:40.881Z,75.45
2023-02-14T00:32:42.786Z,75.10
2023-02-14T00:33:44.482Z,75.46
2023-02-14T00:34:45.891Z,75.27
2023-02-14T00:35:47.766Z,75.35
2023-02-14T00:36:50.159Z,75.38
2023-02-14T00:37:51.867Z,75.24
2023-02-14T00:38:54.652Z,75.42
2023-02-14T00:39:56.205Z,75.25
2023-02-14T00:40:58.272Z,75.32
2023-02-14T00:42:00.131Z,75.32
2023-02-14T00:43:01.742Z,75.70
2023-02-14T00:44:03.503Z,75.41
2023-02-14T00:45:05.227Z,75.34
2023-02-14T00:46:06.789Z,75.57
2023-02-14T00:47:08.590Z,75.42
2023-02-14T00:48:10.126Z,75.34
2023-02-14T00:49:12.789Z,75.41
2023-02-14T00:50:14.294Z,75.74
2023-02-14T00:51:17.750Z,75.40
2023-02-14T00:52:19.285Z,75.31
2023-02-14T00:53:20.803Z,75.55
2023-02-14T00:54:22.596Z,75.61
2023-02-14T00:55:24.069Z,75.37
2023-02-14T00:56:25.618Z,75.40
2023-02-14T00:57:27.082Z,75.69
2023-02-14T00:58:29.284Z,75.66
2023-02-14T00:59:31.029Z,75.49
2023-02-14T01:00:32.658Z,75.60
2023-02-14T01:01:34.732Z,75.47
2023-02-14T01:02:37.868Z,75.61
2023-02-14T01:03:39.640Z,75.58
2023-02-14T01:04:41.476Z,75.47
2023-02-14T01:05:43.108Z,75.63
2023-02-14T01:06:44.710Z,75.89
2023-02-14T01:07:47.920Z,75.62
2023-02-14T01:08:49.449Z,75.89
2023-02-14T01:09:51.137Z,75.77
2023-02-14T01:10:52.857Z,75.55
2023-02-14T01:11:54.473Z,75.43
2023-02-14T01:12:56.044Z,75.62
2023-02-14T01:13:58.187Z,75.49
2023-02-14T01:15:00.029Z,75.50
2023-02-14T01:16:07.007Z,75.66
2023-02-14T01:17:08.514Z,75.58
2023-02-14T01:18:10.661Z,75.62
2023-02-14T01:19:12.332Z,75.68
2023-02-14T01:20:14.223Z,75.72
2023-02-14T01:21:22.793Z,75.67
2023-02-14T01:22:24.338Z,75.68
2023-02-14T01:23:26.907Z,75.62
2023-02-14T01:24:28.359Z,75.66
2023-02-14T01:25:30.548Z,75.75
2023-02-14T01:26:34.763Z,75.88
2023-02-14T01:27:36.595Z,75.84
2023-02-14T01:28:38.853Z,75.83
2023-02-14T01:29:40.356Z,76.04
2023-02-14T01:30:42.082Z,75.75
2023-02-14T01:31:44.752Z,75.99
2023-02-14T01:32:46.813Z,75.79
2023-02-14T01:33:49.182Z,75.67
2023-02-14T01:34:50.998Z,75.71
2023-02-14T01:35:52.552Z,75.72
2023-02-14T01:36:55.251Z,75.74
2023-02-14T01:37:56.838Z,75.68
2023-02-14T01:39:07.027Z,75.66
2023-02-14T01:40:13.740Z,75.58
2023-02-14T01:41:18.428Z,75.85
2023-02-14T01:42:20.014Z,76.00
2023-02-14T01:43:22.410Z,75.99
2023-02-14T01:44:36.485Z,76.15
2023-02-14T01:45:37.987Z,75.95
2023-02-14T01:46:41.675Z,75.78
2023-02-14T01:47:45.614Z,75.89
2023-02-14T01:48:48.135Z,75.87
2023-02-14T01:49:55.210Z,75.73
2023-02-14T01:50:57.055Z,75.93
2023-02-14T01:52:09.836Z,76.00
2023-02-14T01:53:18.363Z,75.74
2023-02-14T01:54:24.127Z,75.72
2023-02-14T01:55:29.662Z,75.87
2023-02-14T01:56:43.114Z,75.91
2023-02-14T01:57:58.796Z,76.17
2023-02-14T01:59:04.707Z,76.01
2023-02-14T02:00:26.458Z,75.73
2023-02-14T02:01:29.832Z,75.86
2023-02-14T02:02:31.489Z,75.99
2023-02-14T02:03:40.939Z,76.00
2023-02-14T02:04:46.499Z,75.93
2023-02-14T02:05:52.236Z,75.82
2023-02-14T02:07:01.033Z,75.68
2023-02-14T02:08:03.667Z,75.92
2023-02-14T02:09:12.455Z,75.81
2023-02-14T02:10:13.955Z,75.75
2023-02-14T02:11:16.420Z,75.77
2023-02-14T02:12:18.142Z,75.73
2023-02-14T02:13:22.112Z,75.65
2023-02-14T02:14:24.128Z,75.66
2023-02-14T02:15:26.891Z,75.83
2023-02-14T02:16:46.964Z,75.98
2023-02-14T02:17:52.497Z,75.86
2023-02-14T02:19:23.678Z,75.83
2023-02-14T02:20:57.360Z,75.64
2023-02-14T02:22:05.301Z,76.00
2023-02-14T02:23:28.713Z,75.89
2023-02-14T02:24:53.357Z,76.23
2023-02-14T02:26:10.217Z,76.19
2023-02-14T02:27:20.930Z,76.23
2023-02-14T02:28:55.714Z,76.12
2023-02-14T02:30:10.873Z,76.09
2023-02-14T02:32:28.217Z,75.76
2023-02-14T02:33:35.563Z,75.73
2023-02-14T02:35:04.947Z,75.60
2023-02-14T02:36:18.769Z,75.64
2023-02-14T02:37:42.308Z,75.61
2023-02-14T02:39:08.936Z,75.84
2023-02-14T02:40:24.298Z,75.75
2023-02-14T02:42:21.195Z,75.93
2023-02-14T02:43:45.518Z,76.01
2023-02-14T02:44:50.187Z,75.80
2023-02-14T02:46:22.293Z,75.65
2023-02-14T02:47:43.662Z,76.12
2023-02-14T02:48:59.181Z,76.00
2023-02-14T02:50:59.109Z,76.09
2023-02-14T02:52:22.585Z,76.09
2023-02-14T02:53:45.796Z,75.95
2023-02-14T02:54:58.326Z,75.87
2023-02-14T02:56:30.099Z,75.77
2023-02-14T02:57:37.862Z,75.83
2023-02-14T02:58:45.905Z,75.65
2023-02-14T02:59:51.300Z,75.55
2023-02-14T03:00:54.694Z,75.43
2023-02-14T03:02:01.803Z,75.51
2023-02-14T03:03:23.080Z,75.52
2023-02-14T03:04:45.098Z,75.34
2023-02-14T03:05:46.895Z,75.35
2023-02-14T03:06:50.430Z,75.49
2023-02-14T03:07:52.394Z,75.45
2023-02-14T03:08:53.990Z,75.53
2023-02-14T03:09:58.225Z,75.58
2023-02-14T03:11:02.392Z,75.47
2023-02-14T03:12:28.876Z,75.52
2023-02-14T03:14:00.495Z,75.52
2023-02-14T03:15:17.907Z,75.76
2023-02-14T03:16:32.588Z,75.73
2023-02-14T03:17:58.346Z,75.73
2023-02-14T03:19:00.477Z,75.89
2023-02-14T03:20:17.154Z,75.93
2023-02-14T03:21:36.631Z,76.12
2023-02-14T03:22:38.278Z,76.19
2023-02-14T03:24:08.877Z,76.04
2023-02-14T03:25:16.424Z,76.22
2023-02-14T03:26:44.171Z,76.13
2023-02-14T03:27:56.473Z,76.54
2023-02-14T03:29:31.068Z,76.43
2023-02-14T03:30:41.497Z,76.44
2023-02-14T03:31:50.480Z,76.16
2023-02-14T03:33:00.777Z,76.23
2023-02-14T03:34:11.674Z,76.22
2023-02-14T03:35:28.751Z,76.15
2023-02-14T03:36:54.677Z,76.22
2023-02-14T03:38:13.681Z,76.20
2023-02-14T03:39:27.296Z,76.15
2023-02-14T03:40:44.347Z,76.25
2023-02-14T03:41:53.243Z,76.63
2023-02-14T03:43:18.494Z,76.49
2023-02-14T03:44:25.205Z,76.64
2023-02-14T03:45:35.267Z,76.47
2023-02-14T03:46:43.824Z,76.65
2023-02-14T03:47:48.103Z,76.67
2023-02-14T03:48:52.966Z,76.34
2023-02-14T03:50:10.097Z,76.59
2023-02-14T03:51:14.070Z,76.50
2023-02-14T03:52:17.973Z,76.65
2023-02-14T03:53:25.339Z,76.45
2023-02-14T03:54:29.587Z,76.77
2023-02-14T03:55:39.757Z,76.64
2023-02-14T03:56:52.277Z,76.47
2023-02-14T03:58:15.929Z,76.62
2023-02-14T03:59:25.056Z,76.62
2023-02-14T04:00:30.702Z,76.61
2023-02-14T04:01:47.045Z,76.60
2023-02-14T04:02:54.519Z,76.84
2023-02-14T04:03:58.768Z,76.65
2023-02-14T04:05:03.502Z,76.69
2023-02-14T04:06:05.280Z,76.79
2023-02-14T04:07:18.164Z,76.83
2023-02-14T04:08:25.487Z,76.67
2023-02-14T04:09:27.271Z,76.75
2023-02-14T04:10:29.400Z,76.85
2023-02-14T04:11:35.229Z,77.05
2023-02-14T04:12:38.173Z,76.79
2023-02-14T04:13:40.354Z,76.71
2023-02-14T04:14:41.946Z,77.05
2023-02-14T04:15:44.620Z,76.91
2023-02-14T04:17:04.878Z,77.01
2023-02-14T04:18:25.143Z,77.21
2023-02-14T04:19:26.994Z,77.14
2023-02-14T04:20:29.045Z,77.10
2023-02-14T04:21:30.752Z,77.02
2023-02-14T04:22:32.254Z,77.10
2023-02-14T04:23:33.848Z,76.97
2023-02-14T04:24:35.388Z,76.83
2023-02-14T04:25:39.434Z,76.90
2023-02-14T04:26:53.292Z,77.17
2023-02-14T04:27:55.194Z,77.08
2023-02-14T04:28:56.693Z,77.12
2023-02-14T04:29:58.237Z,77.05
2023-02-14T04:31:06.006Z,76.90
2023-02-14T04:32:10.443Z,77.07
2023-02-14T04:33:12.077Z,76.86
2023-02-14T04:34:13.924Z,76.85
2023-02-14T04:35:15.408Z,76.95
2023-02-14T04:36:17.166Z,77.04
2023-02-14T04:37:19.514Z,76.91
2023-02-14T04:38:21.256Z,76.75
2023-02-14T04:39:22.851Z,76.80
2023-02-14T04:40:24.368Z,77.03
2023-02-14T04:41:26.376Z,76.93
2023-02-14T04:42:28.111Z,76.97
2023-02-14T04:43:29.744Z,76.80
2023-02-14T04:44:33.336Z,77.14
2023-02-14T04:45:34.906Z,76.79
2023-02-14T04:46:37.047Z,76.96
2023-02-14T04:47:39.186Z,77.10
2023-02-14T04:48:40.735Z,76.96
2023-02-14T04:49:42.267Z,77.13
2023-02-14T04:50:43.929Z,77.12
2023-02-14T04:51:46.869Z,76.91
2023-02-14T04:52:49.104Z,76.85
2023-02-14T04:53:50.650Z,76.96
2023-02-14T04:54:52.302Z,77.11
2023-02-14T04:55:53.943Z,77.12
2023-02-14T04:56:55.745Z,77.11
2023-02-14T04:57:57.405Z,76.96
2023-02-14T04:58:59.892Z,76.99
2023-02-14T05:00:01.967Z,76.99
2023-02-14T05:01:04.344Z,76.91
2023-02-14T05:02:06.166Z,77.00
2023-02-14T05:03:08.075Z,77.09
2023-02-14T05:04:10.056Z,77.02
2023-02-14T05:05:11.894Z,77.13
2023-02-14T05:06:13.410Z,76.96
2023-02-14T05:07:15.287Z,76.96
2023-02-14T05:08:16.875Z,76.98
2023-02-14T05:09:18.411Z,77.17
2023-02-14T05:10:19.996Z,76.93
2023-02-14T05:11:22.253Z,76.96
2023-02-14T05:12:24.092Z,77.00
2023-02-14T05:13:25.680Z,76.84
2023-02-14T05:14:27.487Z,76.79
2023-02-14T05:15:28.983Z,76.92
2023-02-14T05:16:30.820Z,76.92
2023-02-14T05:17:33.077Z,76.93
2023-02-14T05:18:34.668Z,77.03
2023-02-14T05:19:36.291Z,76.80
2023-02-14T05:20:37.771Z,76.83
2023-02-14T05:21:39.264Z,77.00
2023-02-14T05:22:40.923Z,76.96
2023-02-14T05:23:42.695Z,76.83
2023-02-14T05:24:44.190Z,77.06
2023-02-14T05:25:48.694Z,76.97
2023-02-14T05:26:50.175Z,76.93
2023-02-14T05:27:52.102Z,76.93
2023-02-14T05:28:53.820Z,76.91
2023-02-14T05:29:55.386Z,76.91
2023-02-14T05:30:58.066Z,77.02
2023-02-14T05:31:59.808Z,76.90
2023-02-14T05:33:01.562Z,76.91
2023-02-14T05:34:03.405Z,77.06
2023-02-14T05:35:05.457Z,77.04
2023-02-14T05:36:07.412Z,77.18
2023-02-14T05:37:08.964Z,77.30
2023-02-14T05:38:12.546Z,77.11
2023-02-14T05:39:14.290Z,77.18
2023-02-14T05:40:16.037Z,77.16
2023-02-14T05:41:18.180Z,76.99
2023-02-14T05:42:19.733Z,76.89
2023-02-14T05:43:21.781Z,76.86
2023-02-14T05:44:23.447Z,77.03
2023-02-14T05:45:25.336Z,76.95
2023-02-14T05:46:27.104Z,76.88
2023-02-14T05:47:28.584Z,76.96
2023-02-14T05:48:30.620Z,76.99
2023-02-14T05:49:32.177Z,77.08
2023-02-14T05:50:33.788Z,76.97
2023-02-14T05:51:35.340Z,77.02
2023-02-14T05:52:37.362Z,77.01
2023-02-14T05:53:39.275Z,76.96
2023-02-14T05:54:41.387Z,76.87
2023-02-14T05:55:42.899Z,76.84
2023-02-14T05:56:44.418Z,76.89
2023-02-14T05:57:46.531Z,76.92
2023-02-14T05:58:48.188Z,76.74
2023-02-14T05:59:49.899Z,76.72
2023-02-14T06:00:51.489Z,76.71
2023-02-14T06:01:53.048Z,76.64
2023-02-14T06:02:54.592Z,76.67
2023-02-14T06:03:56.349Z,76.76
2023-02-14T06:04:58.277Z,76.80
2023-02-14T06:05:59.773Z,76.87
2023-02-14T06:07:01.370Z,76.91
2023-02-14T06:08:03.056Z,76.82
2023-02-14T06:09:04.883Z,76.81
2023-02-14T06:10:09.173Z,76.84
2023-02-14T06:11:10.696Z,76.83
2023-02-14T06:12:12.259Z,76.86
2023-02-14T06:13:14.138Z,76.89
2023-02-14T06:14:15.989Z,76.92
2023-02-14T06:15:18.358Z,76.93
2023-02-14T06:16:19.912Z,76.98
2023-02-14T06:17:21.433Z,77.05
2023-02-14T06:18:26.749Z,77.02
2023-02-14T06:19:28.270Z,77.06
2023-02-14T06:20:30.521Z,77.04
2023-02-14T06:21:32.213Z,77.04
2023-02-14T06:22:33.818Z,77.03
2023-02-14T06:23:35.490Z,77.08
2023-02-14T06:24:37.232Z,77.09
2023-02-14T06:25:39.008Z,77.06
2023-02-14T06:26:40.680Z,77.08
2023-02-14T06:27:42.354Z,77.10
2023-02-14T06:28:43.999Z,77.09
2023-02-14T06:29:45.778Z,77.07
2023-02-14T06:30:47.699Z,77.06
2023-02-14T06:31:49.680Z,77.02
2023-02-14T06:32:51.242Z,77.03
2023-02-14T06:33:52.919Z,77.01
2023-02-14T06:34:54.419Z,77.02
2023-02-14T06:35:56.127Z,77.01
2023-02-14T06:36:57.521Z,77.00
2023-02-14T06:37:59.192Z,76.99
2023-02-14T06:39:00.941Z,76.94
2023-02-14T06:40:02.723Z,76.83
2023-02-14T06:41:06.530Z,76.76
2023-02-14T06:42:08.289Z,76.73
2023-02-14T06:43:09.927Z,76.76
2023-02-14T06:44:11.672Z,76.68
2023-02-14T06:45:13.334Z,76.64
2023-02-14T06:46:16.547Z,76.60
2023-02-14T06:47:18.083Z,76.48
2023-02-14T06:48:19.586Z,76.51
2023-02-14T06:49:21.047Z,76.55
2023-02-14T06:50:22.649Z,76.54
2023-02-14T06:51:24.383Z,76.39
2023-02-14T06:52:25.968Z,76.48
2023-02-14T06:53:27.636Z,76.52
2023-02-14T06:54:29.447Z,76.48
2023-02-14T06:55:31.296Z,76.43
2023-02-14T06:56:33.020Z,76.40
2023-02-14T06:57:34.483Z,76.37
2023-02-14T06:58:36.018Z,76.37
2023-02-14T06:59:37.947Z,76.36
2023-02-14T07:00:39.652Z,76.22
2023-02-14T07:01:41.372Z,76.13
2023-02-14T07:02:43.033Z,76.09
2023-02-14T07:03:44.680Z,76.12
2023-02-14T07:04:46.200Z,76.15
2023-02-14T07:05:47.671Z,76.09
2023-02-14T07:06:49.550Z,75.97
2023-02-14T07:07:51.255Z,75.95
2023-02-14T07:08:52.726Z,75.95
2023-02-14T07:09:54.389Z,75.93
2023-02-14T07:10:57.106Z,75.99
2023-02-14T07:11:59.081Z,75.97
2023-02-14T07:13:00.933Z,76.01
2023-02-14T07:14:02.458Z,75.96
2023-02-14T07:15:04.767Z,75.93
2023-02-14T07:16:06.634Z,75.95
2023-02-14T07:17:08.492Z,75.89
2023-02-14T07:18:10.955Z,75.85
2023-02-14T07:19:12.454Z,75.86
2023-02-14T07:20:14.012Z,75.77
2023-02-14T07:21:15.929Z,75.76
2023-02-14T07:22:17.558Z,75.71
2023-02-14T07:23:19.244Z,75.74
2023-02-14T07:24:21.636Z,75.68
2023-02-14T07:25:23.464Z,75.61
2023-02-14T07:26:25.182Z,75.64
2023-02-14T07:27:26.804Z,75.56
2023-02-14T07:28:29.739Z,75.53
2023-02-14T07:29:31.205Z,75.48
2023-02-14T07:30:32.819Z,75.42
2023-02-14T07:31:34.585Z,75.38
2023-02-14T07:32:37.342Z,75.33
2023-02-14T07:33:38.913Z,75.28
2023-02-14T07:34:40.553Z,75.26
2023-02-14T07:35:42.058Z,75.19
2023-02-14T07:36:43.636Z,75.15
2023-02-14T07:37:45.316Z,75.14
2023-02-14T07:38:46.738Z,75.14
2023-02-14T07:39:48.320Z,75.10
2023-02-14T07:40:53.011Z,75.03
2023-02-14T07:41:54.676Z,74.99
2023-02-14T07:42:57.540Z,74.98
2023-02-14T07:43:59.444Z,75.01
2023-02-14T07:45:06.961Z,74.99
2023-02-14T07:46:17.708Z,74.98
2023-02-14T07:47:19.399Z,74.98
2023-02-14T07:48:21.477Z,74.96
2023-02-14T07:49:22.932Z,74.92
2023-02-14T07:50:24.462Z,74.89
2023-02-14T07:51:26.058Z,74.86
2023-02-14T07:52:27.633Z,74.83
2023-02-14T07:53:29.437Z,74.76
2023-02-14T07:54:31.070Z,74.71
2023-02-14T07:55:32.605Z,74.69
2023-02-14T07:56:34.098Z,74.69
2023-02-14T07:57:35.748Z,74.64
2023-02-14T07:58:37.520Z,74.55
2023-02-14T07:59:39.014Z,74.52
2023-02-14T08:00:40.407Z,74.40
2023-02-14T08:01:42.475Z,73.96
2023-02-14T08:02:44.235Z,73.89
2023-02-14T08:03:48.824Z,74.00
2023-02-14T08:04:50.316Z,74.04
2023-02-14T08:05:56.361Z,74.04
2023-02-14T08:06:57.908Z,74.05
2023-02-14T08:07:59.665Z,74.01
2023-02-14T08:09:01.513Z,73.87
2023-02-14T08:10:03.337Z,73.84
2023-02-14T08:11:05.034Z,73.78
2023-02-14T08:12:25.380Z,73.72
2023-02-14T08:13:27.109Z,73.75
2023-02-14T08:14:28.805Z,73.49
2023-02-14T08:15:51.554Z,73.42
2023-02-14T08:16:53.419Z,73.46
2023-02-14T08:17:58.097Z,73.38
2023-02-14T08:19:00.565Z,73.05
2023-02-14T08:20:02.375Z,73.12
2023-02-14T08:21:06.377Z,73.02
2023-02-14T08:22:07.889Z,73.04
2023-02-14T08:23:09.682Z,73.01
2023-02-14T08:24:11.202Z,72.87
2023-02-14T08:25:12.948Z,72.75
2023-02-14T08:26:15.401Z,72.87
2023-02-14T08:27:16.936Z,72.90
2023-02-14T08:28:20.815Z,72.88
2023-02-14T08:29:22.627Z,72.88
2023-02-14T08:30:24.396Z,72.92
2023-02-14T08:31:35.787Z,72.92
2023-02-14T08:32:38.033Z,72.69
2023-02-14T08:33:39.745Z,72.62
2023-02-14T08:34:41.464Z,72.58
2023-02-14T08:35:43.321Z,72.66
2023-02-14T08:36:45.043Z,72.65
2023-02-14T08:37:46.832Z,72.60
2023-02-14T08:38:48.548Z,72.59
2023-02-14T08:39:50.248Z,72.54
2023-02-14T08:40:52.029Z,72.53
2023-02-14T08:41:53.560Z,72.62
2023-02-14T08:42:55.106Z,72.55
2023-02-14T08:43:56.659Z,72.50
2023-02-14T08:44:58.242Z,72.20
2023-02-14T08:46:01.191Z,72.35
2023-02-14T08:47:03.388Z,72.13
2023-02-14T08:48:07.819Z,72.07
2023-02-14T08:49:09.780Z,72.01
2023-02-14T08:50:15.403Z,71.82
2023-02-14T08:51:17.165Z,71.61
2023-02-14T08:52:18.742Z,71.56
2023-02-14T08:53:21.453Z,71.36
2023-02-14T08:54:22.922Z,71.02
2023-02-14T08:55:25.302Z,70.95
2023-02-14T08:56:26.901Z,70.93
2023-02-14T08:57:28.428Z,70.62
2023-02-14T08:58:30.922Z,70.24
2023-02-14T08:59:33.606Z,70.29
2023-02-14T09:00:35.280Z,70.42
2023-02-14T09:01:37.177Z,70.41
2023-02-14T09:02:38.738Z,70.30
2023-02-14T09:03:40.794Z,70.38
2023-02-14T09:04:42.327Z,70.34
2023-02-14T09:05:43.926Z,69.88
2023-02-14T09:06:45.599Z,69.93
2023-02-14T09:07:47.076Z,69.79
2023-02-14T09:08:48.841Z,69.75
2023-02-14T09:09:50.382Z,69.80
2023-02-14T09:10:52.015Z,69.49
2023-02-14T09:11:55.467Z,69.49
2023-02-14T09:12:57.029Z,69.43
2023-02-14T09:13:58.572Z,69.56
2023-02-14T09:15:00.119Z,69.51
2023-02-14T09:16:05.933Z,69.42
2023-02-14T09:17:07.680Z,69.24
2023-02-14T09:18:09.275Z,68.48
2023-02-14T09:19:10.908Z,68.83
2023-02-14T09:20:14.519Z,68.54
2023-02-14T09:21:22.076Z,68.88
2023-02-14T09:22:23.728Z,69.02
2023-02-14T09:23:25.330Z,68.66
2023-02-14T09:24:27.048Z,68.87
2023-02-14T09:25:28.622Z,68.93
2023-02-14T09:26:30.103Z,68.59
2023-02-14T09:27:31.824Z,68.68
2023-02-14T09:28:34.525Z,68.65
2023-02-14T09:29:36.234Z,68.59
2023-02-14T09:30:37.741Z,68.20
2023-02-14T09:31:39.613Z,68.37
2023-02-14T09:32:41.246Z,68.22
2023-02-14T09:33:44.093Z,68.26
2023-02-14T09:34:45.573Z,68.27
2023-02-14T09:35:47.205Z,68.24
2023-02-14T09:36:48.775Z,68.43
2023-02-14T09:37:50.809Z,68.54
2023-02-14T09:38:52.458Z,68.35
2023-02-14T09:39:53.924Z,68.30
2023-02-14T09:40:55.440Z,68.36
2023-02-14T09:42:03.688Z,68.45
2023-02-14T09:43:14.722Z,68.48
2023-02-14T09:44:25.675Z,68.47
2023-02-14T09:45:29.314Z,68.39
2023-02-14T09:46:42.308Z,68.23
2023-02-14T09:47:55.869Z,68.14
2023-02-14T09:48:57.952Z,67.97
2023-02-14T09:50:00.904Z,68.20
2023-02-14T09:51:04.568Z,68.16
2023-02-14T09:52:12.168Z,68.00
2023-02-14T09:53:29.519Z,67.81
2023-02-14T09:54:34.154Z,67.81
2023-02-14T09:55:45.838Z,67.85
2023-02-14T09:57:01.430Z,67.79
2023-02-14T09:58:18.531Z,67.60
2023-02-14T09:59:30.179Z,67.42
2023-02-14T10:00:37.439Z,67.44
2023-02-14T10:01:45.362Z,67.17
2023-02-14T10:03:05.570Z,66.99
2023-02-14T10:04:30.343Z,66.60
2023-02-14T10:05:42.151Z,66.74
2023-02-14T10:07:26.450Z,66.76
2023-02-14T10:08:55.053Z,66.83
2023-02-14T10:10:11.299Z,66.28
2023-02-14T10:11:17.220Z,66.22
2023-02-14T10:12:34.907Z,66.45
2023-02-14T10:13:46.249Z,66.54
2023-02-14T10:14:49.650Z,66.63
2023-02-14T10:16:01.571Z,66.43
2023-02-14T10:17:13.131Z,66.35
2023-02-14T10:18:20.841Z,66.23
2023-02-14T10:19:31.142Z,65.93
2023-02-14T10:20:41.018Z,65.68
2023-02-14T10:22:04.794Z,65.87
2023-02-14T10:23:21.884Z,65.68
2023-02-14T10:24:37.785Z,65.80
2023-02-14T10:25:48.010Z,65.67
2023-02-14T10:26:52.204Z,65.38
2023-02-14T10:27:57.700Z,65.46
2023-02-14T10:28:59.266Z,65.48
2023-02-14T10:30:02.756Z,65.38
2023-02-14T10:31:14.244Z,65.18
2023-02-14T10:32:25.167Z,64.85
2023-02-14T10:33:32.791Z,64.80
2023-02-14T10:34:48.393Z,64.67
2023-02-14T10:35:55.342Z,64.75
2023-02-14T10:37:14.870Z,64.77
2023-02-14T10:38:42.135Z,64.89
2023-02-14T10:40:21.164Z,64.90
2023-02-14T10:41:49.033Z,65.17
2023-02-14T10:43:15.634Z,65.07
2023-02-14T10:44:41.033Z,65.15
2023-02-14T10:46:06.108Z,65.11
2023-02-14T10:47:35.931Z,65.03
2023-02-14T10:49:02.578Z,64.63
2023-02-14T10:50:29.921Z,64.64
2023-02-14T10:51:41.938Z,64.57
2023-02-14T10:53:13.413Z,64.72
2023-02-14T10:54:25.578Z,64.52
2023-02-14T10:55:43.493Z,64.30
2023-02-14T10:56:52.845Z,63.79
2023-02-14T10:57:56.087Z,63.92
2023-02-14T10:59:02.045Z,63.85
2023-02-14T11:00:29.613Z,63.63
2023-02-14T11:01:33.108Z,63.39
2023-02-14T11:02:45.589Z,63.34
2023-02-14T11:04:10.934Z,63.37
2023-02-14T11:05:42.796Z,63.13
2023-02-14T11:06:48.522Z,62.66
2023-02-14T11:07:50.067Z,62.69
2023-02-14T11:08:51.695Z,62.95
2023-02-14T11:09:53.136Z,63.02
2023-02-14T11:11:17.783Z,62.90
2023-02-14T11:12:39.259Z,62.65
2023-02-14T11:13:41.723Z,62.05
2023-02-14T11:14:43.446Z,62.38
2023-02-14T11:15:50.105Z,62.58
2023-02-14T11:16:52.945Z,62.52
2023-02-14T11:18:25.137Z,62.46
2023-02-14T11:19:31.049Z,62.11
2023-02-14T11:20:32.969Z,61.99
2023-02-14T11:21:39.447Z,61.89
2023-02-14T11:22:41.263Z,60.82
2023-02-14T11:23:46.982Z,61.42
2023-02-14T11:24:48.660Z,61.27
2023-02-14T11:25:54.787Z,61.41
2023-02-14T11:27:09.238Z,61.51
2023-02-14T11:28:17.883Z,61.51
2023-02-14T11:29:34.567Z,61.63
2023-02-14T11:30:40.726Z,61.33
2023-02-14T11:31:42.785Z,60.85
2023-02-14T11:32:54.425Z,61.16
2023-02-14T11:33:57.300Z,60.80
2023-02-14T11:35:07.154Z,60.72
2023-02-14T11:36:14.418Z,60.66
2023-02-14T11:37:26.182Z,60.48
2023-02-14T11:38:35.131Z,59.95
2023-02-14T11:39:36.667Z,60.18
2023-02-14T11:40:39.873Z,59.95
2023-02-14T11:41:55.960Z,59.57
2023-02-14T11:43:19.838Z,60.52
2023-02-14T11:44:25.527Z,60.26
2023-02-14T11:45:27.145Z,62.10
2023-02-14T11:46:30.420Z,61.85
2023-02-14T11:47:42.452Z,62.36
2023-02-14T11:48:59.310Z,61.74
2023-02-14T11:50:05.411Z,59.72
2023-02-14T11:51:14.104Z,57.64
2023-02-14T11:52:19.054Z,55.76
2023-02-14T11:53:25.087Z,54.86
2023-02-14T11:54:38.416Z,53.15
2023-02-14T11:55:40.349Z,52.56
2023-02-14T11:57:04.783Z,52.54
2023-02-14T11:58:07.927Z,51.34
2023-02-14T11:59:20.314Z,52.98
2023-02-14T12:00:23.002Z,53.32
2023-02-14T12:01:31.659Z,52.98
2023-02-14T12:02:38.141Z,52.85
2023-02-14T12:03:46.634Z,53.00
2023-02-14T12:04:52.657Z,54.03
2023-02-14T12:05:59.772Z,54.49
2023-02-14T12:07:32.487Z,54.86
2023-02-14T12:08:36.959Z,55.54
2023-02-14T12:09:40.781Z,56.31
2023-02-14T12:10:42.276Z,56.37
2023-02-14T12:11:57.382Z,57.00
2023-02-14T12:13:07.930Z,57.28
2023-02-14T12:14:21.491Z,57.74
2023-02-14T12:15:23.461Z,57.93
2023-02-14T12:16:37.846Z,58.03
2023-02-14T12:17:43.868Z,58.60
2023-02-14T12:19:23.740Z,58.80
2023-02-14T12:20:48.597Z,58.74
2023-02-14T12:21:59.085Z,59.05
2023-02-14T12:23:23.545Z,59.16
2023-02-14T12:24:53.543Z,59.56
2023-02-14T12:26:10.063Z,59.89
2023-02-14T12:27:27.223Z,59.60
2023-02-14T12:28:40.718Z,58.58
2023-02-14T12:29:48.249Z,59.07
2023-02-14T12:30:49.935Z,58.42
2023-02-14T12:31:53.039Z,58.27
2023-02-14T12:32:58.427Z,57.54
2023-02-14T12:34:03.153Z,57.33
2023-02-14T12:35:16.867Z,57.08
2023-02-14T12:36:49.604Z,57.18
2023-02-14T12:38:05.812Z,56.73
2023-02-14T12:39:18.303Z,57.12
2023-02-14T12:40:21.184Z,56.98
2023-02-14T12:41:34.846Z,56.57
2023-02-14T12:42:59.916Z,56.19
2023-02-14T12:44:16.949Z,56.20
2023-02-14T12:45:30.594Z,55.89
2023-02-14T12:46:41.264Z,55.43
2023-02-14T12:48:06.066Z,55.12
2023-02-14T12:49:32.461Z,55.02
2023-02-14T12:51:03.908Z,54.23
2023-02-14T12:53:01.287Z,54.83
2023-02-14T12:54:14.768Z,54.77
2023-02-14T12:55:33.415Z,54.73
2023-02-14T12:56:54.210Z,54.28
2023-02-14T12:58:12.024Z,54.55
2023-02-14T12:59:39.994Z,54.25
2023-02-14T13:00:52.113Z,54.25
2023-02-14T13:02:31.306Z,53.71
2023-02-14T13:03:46.697Z,53.58
2023-02-14T13:04:57.207Z,53.16
2023-02-14T13:06:17.226Z,53.12
2023-02-14T13:07:37.018Z,52.87
2023-02-14T13:09:00.892Z,52.41
2023-02-14T13:10:09.699Z,52.60
2023-02-14T13:11:35.767Z,51.82
2023-02-14T13:12:55.172Z,51.87
2023-02-14T13:14:05.270Z,50.93
2023-02-14T13:15:19.983Z,50.86
2023-02-14T13:16:40.166Z,51.04
2023-02-14T13:17:52.341Z,50.84
2023-02-14T13:19:23.924Z,51.07
2023-02-14T13:20:40.708Z,51.23
2023-02-14T13:21:43.673Z,51.26
2023-02-14T13:22:48.261Z,51.16
2023-02-14T13:23:55.010Z,51.44
2023-02-14T13:25:00.732Z,51.62
2023-02-14T13:26:21.839Z,51.51
2023-02-14T13:27:33.292Z,51.36
2023-02-14T13:28:37.828Z,51.38
2023-02-14T13:30:11.972Z,51.62
2023-02-14T13:31:14.393Z,51.24
2023-02-14T13:32:20.807Z,51.39
2023-02-14T13:33:35.889Z,51.51
2023-02-14T13:34:47.940Z,52.30
2023-02-14T13:35:50.962Z,51.49
2023-02-14T13:36:54.865Z,51.39
2023-02-14T13:38:06.916Z,51.58
2023-02-14T13:39:17.929Z,51.62
2023-02-14T13:40:24.981Z,51.32
2023-02-14T13:41:28.156Z,50.79
2023-02-14T13:42:49.126Z,50.43
2023-02-14T13:43:56.372Z,49.92
2023-02-14T13:44:58.217Z,49.76
2023-02-14T13:45:59.947Z,49.56
2023-02-14T13:47:01.493Z,49.49
2023-02-14T13:48:09.176Z,49.96
2023-02-14T13:49:32.619Z,49.65
2023-02-14T13:50:38.369Z,49.25
2023-02-14T13:52:03.968Z,49.95
2023-02-14T13:53:11.673Z,50.37
2023-02-14T13:54:31.218Z,49.81
2023-02-14T13:55:35.690Z,49.86
2023-02-14T13:56:37.381Z,49.19
2023-02-14T13:57:40.730Z,49.41
2023-02-14T13:58:51.522Z,49.21
2023-02-14T14:00:14.931Z,49.74
2023-02-14T14:01:39.952Z,49.37
2023-02-14T14:02:59.976Z,49.22
2023-02-14T14:04:24.999Z,48.51
2023-02-14T14:05:29.903Z,49.03
2023-02-14T14:07:03.309Z,48.35
2023-02-14T14:08:17.299Z,48.70
2023-02-14T14:09:41.540Z,48.92
2023-02-14T14:10:45.893Z,48.84
2023-02-14T14:11:49.460Z,48.13
2023-02-14T14:12:52.435Z,47.68
2023-02-14T14:13:56.580Z,48.58
2023-02-14T14:15:04.220Z,48.27
2023-02-14T14:16:27.221Z,49.26
2023-02-14T14:17:28.762Z,49.30
2023-02-14T14:18:36.707Z,49.74
2023-02-14T14:19:40.033Z,49.90
2023-02-14T14:20:47.140Z,49.92
2023-02-14T14:22:04.980Z,49.75
2023-02-14T14:23:36.927Z,49.82
2023-02-14T14:24:40.424Z,49.82
2023-02-14T14:25:42.342Z,49.66
2023-02-14T14:27:20.249Z,49.49
2023-02-14T14:28:25.446Z,49.28